This is the latest recevied weather packets stored in our database for station/object SV9TNF-52. If no packets are shown the sender has not sent any weather packets the latest 10 day(s).
| Time | Temp. | Humidity | Pressure | Rain* | Wind** | Luminosity | Snow |
|---|---|---|---|---|---|---|---|
| 1788004910 | 28.33° C | 55% | 1022.7 hPa | 0 mm | 8.05 m/s, 40° | - | - |
| 1788004610 | 27.78° C | 56% | 1022.4 hPa | 0 mm | 13.41 m/s, 231° | - | - |
| 1788004310 | 28.33° C | 56% | 1022.4 hPa | 0 mm | 8.94 m/s, 356° | - | - |
| 1788004010 | 28.33° C | 55% | 1022.4 hPa | 0 mm | 10.28 m/s, 324° | - | - |
| 1788003710 | 29.44° C | 52% | 1022.4 hPa | 0 mm | 4.92 m/s, 53° | - | - |
| 1788003410 | 29.44° C | 53% | 1022.4 hPa | 0 mm | 4.92 m/s, 256° | - | - |
| 1788003109 | 30° C | 52% | 1022 hPa | 0 mm | 3.58 m/s, 230° | - | - |
| 1788002810 | 28.33° C | 54% | 1022 hPa | 0 mm | 8.94 m/s, 21° | - | - |
| 1788002509 | 29.44° C | 52% | 1022 hPa | 0 mm | 4.47 m/s, 344° | - | - |
| 1788002209 | 30.56° C | 51% | 1022 hPa | 0 mm | 3.58 m/s, 333° | - | - |
| 1788001909 | 28.89° C | 54% | 1022.4 hPa | 0 mm | 5.81 m/s, 156° | - | - |
| 1788001609 | 29.44° C | 52% | 1022.4 hPa | 0 mm | 1.79 m/s, 337° | - | - |
| 1788001309 | 28.33° C | 55% | 1022.4 hPa | 0 mm | 5.36 m/s, 167° | - | - |
| 1788001009 | 29.44° C | 53% | 1022.4 hPa | 0 mm | 9.83 m/s, 323° | - | - |
| 1788000709 | 30° C | 53% | 1022.4 hPa | 0 mm | 3.58 m/s, 121° | - | - |
| 1788000409 | 30.56° C | 48% | 1022.4 hPa | 0 mm | 4.92 m/s, 0° | - | - |
| 1788000108 | 31.11° C | 47% | 1022.4 hPa | 0 mm | 1.34 m/s, 107° | - | - |
| 1787999809 | 30.56° C | 45% | 1022.4 hPa | 0 mm | 0.89 m/s, 82° | - | - |
| 1787999508 | 29.44° C | 50% | 1022.4 hPa | 0 mm | 1.34 m/s, 71° | - | - |
| 1787999208 | 28.89° C | 49% | 1022.4 hPa | 0 mm | 2.24 m/s, 66° | - | - |
| 1787998908 | 29.44° C | 47% | 1022 hPa | 0 mm | 0.89 m/s, 288° | - | - |
| 1787998608 | 28.89° C | 47% | 1022 hPa | 0 mm | 2.68 m/s, 81° | - | - |
| 1787998308 | 28.33° C | 49% | 1022 hPa | 0 mm | 3.13 m/s, 57° | - | - |
| 1787998008 | 28.33° C | 49% | 1022 hPa | 0 mm | 4.02 m/s, 105° | - | - |
| 1787997708 | 28.89° C | 48% | 1022 hPa | 0 mm | 3.58 m/s, 96° | - | - |
* Rain latest hour (hover to see other rain measurements)
** Current wind speed in m/s (hover to see current wind gust speed)